Terminal Aerodrome Forecast
Issued by NWS

Home | Current Version | Previous Version | Text Only | Print | Product List | Glossary Off
Versions: 1 2 3 4 5 6 7 8 9 10 11 12 13 14 15 16 17 18 19

380
FTUS41 KCLE 032332
TAFFDY
TAF
KFDY 032332Z 0400/0424 28006KT P6SM OVC035
     FM040600 VRB03KT P6SM SCT035 OVC150
     FM042100 13005KT P6SM -RA OVC070=

USA.gov is the U.S. government's official web portal to all federal, state and local government web resources and services.